createdAt,value
2022-09-30T00:00:30.157Z,8.16
2022-09-30T00:01:30.191Z,9.18
2022-09-30T00:02:30.150Z,9.18
2022-09-30T00:03:30.130Z,8.16
2022-09-30T00:04:30.129Z,9.02
2022-09-30T00:05:30.099Z,9.88
2022-09-30T00:06:30.086Z,9.08
2022-09-30T00:07:30.078Z,8.38
2022-09-30T00:08:30.070Z,9.13
2022-09-30T00:09:30.112Z,9.18
2022-09-30T00:10:30.054Z,9.83
2022-09-30T00:11:30.047Z,9.24
2022-09-30T00:12:30.025Z,9.61
2022-09-30T00:13:30.026Z,10.26
2022-09-30T00:14:30.009Z,9.24
2022-09-30T00:15:30.004Z,8.97
2022-09-30T00:16:30.027Z,8.16
2022-09-30T00:17:29.976Z,9.18
2022-09-30T00:18:29.963Z,9.13
2022-09-30T00:19:29.964Z,8.22
2022-09-30T00:20:29.946Z,8.16
2022-09-30T00:21:29.935Z,8.27
2022-09-30T00:22:29.928Z,8.65
2022-09-30T00:23:29.917Z,9.24
2022-09-30T00:24:29.923Z,9.13
2022-09-30T00:25:29.890Z,10.04
2022-09-30T00:26:29.881Z,9.99
2022-09-30T00:27:29.871Z,9.02
2022-09-30T00:28:29.865Z,9.51
2022-09-30T00:29:29.858Z,9.13
2022-09-30T00:30:29.850Z,8.54
2022-09-30T00:31:29.870Z,7.90
2022-09-30T00:32:29.817Z,8.00
2022-09-30T00:33:29.826Z,9.13
2022-09-30T00:34:29.813Z,9.13
2022-09-30T00:35:29.836Z,9.13
2022-09-30T00:36:29.795Z,9.08
2022-09-30T00:37:29.795Z,8.11
2022-09-30T00:38:29.756Z,9.02
2022-09-30T00:39:29.749Z,9.02
2022-09-30T00:40:29.744Z,7.79
2022-09-30T00:41:29.728Z,8.97
2022-09-30T00:42:29.730Z,9.83
2022-09-30T00:43:29.718Z,9.24
2022-09-30T00:44:29.696Z,10.15
2022-09-30T00:45:29.685Z,9.83
2022-09-30T00:46:29.705Z,8.97
2022-09-30T00:47:29.672Z,10.10
2022-09-30T00:48:29.652Z,9.18
2022-09-30T00:49:29.652Z,8.27
2022-09-30T00:50:29.659Z,9.99
2022-09-30T00:51:29.617Z,9.02
2022-09-30T00:52:29.613Z,9.08
2022-09-30T00:53:29.611Z,8.33
2022-09-30T00:54:29.597Z,8.92
2022-09-30T00:55:29.576Z,9.51
2022-09-30T00:56:29.578Z,10.31
2022-09-30T00:57:29.559Z,9.56
2022-09-30T00:58:29.547Z,8.97
2022-09-30T00:59:29.542Z,9.08
2022-09-30T01:00:29.606Z,9.18
2022-09-30T01:01:29.622Z,7.68
2022-09-30T01:02:29.511Z,9.08
2022-09-30T01:03:29.516Z,9.72
2022-09-30T01:04:29.496Z,8.00
2022-09-30T01:05:29.474Z,9.99
2022-09-30T01:06:29.469Z,7.90
2022-09-30T01:07:29.466Z,9.67
2022-09-30T01:08:29.444Z,8.97
2022-09-30T01:09:29.527Z,8.59
2022-09-30T01:10:29.429Z,8.16
2022-09-30T01:11:29.417Z,9.02
2022-09-30T01:12:29.412Z,8.22
2022-09-30T01:13:29.390Z,8.97
2022-09-30T01:14:29.403Z,8.59
2022-09-30T01:15:29.369Z,9.08
2022-09-30T01:16:29.410Z,8.92
2022-09-30T01:17:29.411Z,9.02
2022-09-30T01:18:29.359Z,9.61
2022-09-30T01:19:29.333Z,7.79
2022-09-30T01:20:29.322Z,7.57
2022-09-30T01:21:29.310Z,8.86
2022-09-30T01:22:29.311Z,8.97
2022-09-30T01:23:29.315Z,8.70
2022-09-30T01:24:29.279Z,9.08
2022-09-30T01:25:29.305Z,9.61
2022-09-30T01:26:29.257Z,8.92
2022-09-30T01:27:29.244Z,9.40
2022-09-30T01:28:29.250Z,8.97
2022-09-30T01:29:29.227Z,8.00
2022-09-30T01:30:29.218Z,8.00
2022-09-30T01:31:29.254Z,8.97
2022-09-30T01:32:29.197Z,10.10
2022-09-30T01:33:29.196Z,9.08
2022-09-30T01:34:29.174Z,8.97
2022-09-30T01:35:29.166Z,9.08
2022-09-30T01:36:29.153Z,8.92
2022-09-30T01:37:29.141Z,8.97
2022-09-30T01:38:29.149Z,8.97
2022-09-30T01:39:29.120Z,9.67
2022-09-30T01:40:29.120Z,8.97
2022-09-30T01:41:29.104Z,8.38
2022-09-30T01:42:29.095Z,8.92
2022-09-30T01:43:29.079Z,9.72
2022-09-30T01:44:29.098Z,9.83
2022-09-30T01:45:29.057Z,8.97
2022-09-30T01:46:29.082Z,9.35
2022-09-30T01:47:29.054Z,9.18
2022-09-30T01:48:29.028Z,8.97
2022-09-30T01:49:29.031Z,8.97
2022-09-30T01:50:29.024Z,9.72
2022-09-30T01:51:28.996Z,8.97
2022-09-30T01:52:29.005Z,8.92
2022-09-30T01:53:28.973Z,9.08
2022-09-30T01:54:28.989Z,8.97
2022-09-30T01:55:28.953Z,8.06
2022-09-30T01:56:28.957Z,8.97
2022-09-30T01:57:28.962Z,9.88
2022-09-30T01:58:28.928Z,8.43
2022-09-30T01:59:28.908Z,9.08
2022-09-30T02:00:28.967Z,9.02
2022-09-30T02:01:28.891Z,8.92
2022-09-30T02:02:28.945Z,9.83
2022-09-30T02:03:28.874Z,9.02
2022-09-30T02:04:28.864Z,9.13
2022-09-30T02:05:28.851Z,9.13
2022-09-30T02:06:28.851Z,9.02
2022-09-30T02:07:28.832Z,8.22
2022-09-30T02:08:28.826Z,9.78
2022-09-30T02:09:28.862Z,10.10
2022-09-30T02:10:28.813Z,8.86
2022-09-30T02:11:28.789Z,8.86
2022-09-30T02:12:28.778Z,8.22
2022-09-30T02:13:28.775Z,9.40
2022-09-30T02:14:28.759Z,10.10
2022-09-30T02:15:28.755Z,8.43
2022-09-30T02:16:28.822Z,8.97
2022-09-30T02:17:28.725Z,8.49
2022-09-30T02:18:28.718Z,9.51
2022-09-30T02:19:28.710Z,8.97
2022-09-30T02:20:28.700Z,9.56
2022-09-30T02:21:28.687Z,8.92
2022-09-30T02:22:28.690Z,8.59
2022-09-30T02:23:28.664Z,8.75
2022-09-30T02:24:28.676Z,8.06
2022-09-30T02:25:28.643Z,8.92
2022-09-30T02:26:28.639Z,9.08
2022-09-30T02:27:28.631Z,9.02
2022-09-30T02:28:28.615Z,9.83
2022-09-30T02:29:28.600Z,8.97
2022-09-30T02:30:28.601Z,8.97
2022-09-30T02:31:28.660Z,10.15
2022-09-30T02:32:28.579Z,9.13
2022-09-30T02:33:28.569Z,8.97
2022-09-30T02:34:28.560Z,8.97
2022-09-30T02:35:28.553Z,8.97
2022-09-30T02:36:28.536Z,8.97
2022-09-30T02:37:28.521Z,9.40
2022-09-30T02:38:28.510Z,8.86
2022-09-30T02:39:28.502Z,7.90
2022-09-30T02:40:28.492Z,9.56
2022-09-30T02:41:28.517Z,9.02
2022-09-30T02:42:28.473Z,8.33
2022-09-30T02:43:28.460Z,8.92
2022-09-30T02:44:28.450Z,9.67
2022-09-30T02:45:28.440Z,8.86
2022-09-30T02:46:28.476Z,8.65
2022-09-30T02:47:28.415Z,8.33
2022-09-30T02:48:28.410Z,9.51
2022-09-30T02:49:28.408Z,8.92
2022-09-30T02:50:28.402Z,9.56
2022-09-30T02:51:28.374Z,9.02
2022-09-30T02:52:28.365Z,9.56
2022-09-30T02:53:28.357Z,8.97
2022-09-30T02:54:28.345Z,9.40
2022-09-30T02:55:28.345Z,8.33
2022-09-30T02:56:28.323Z,8.97
2022-09-30T02:57:28.328Z,9.24
2022-09-30T02:58:28.302Z,9.02
2022-09-30T02:59:28.297Z,8.92
2022-09-30T03:00:28.342Z,8.16
2022-09-30T03:01:28.275Z,9.94
2022-09-30T03:02:28.272Z,9.88
2022-09-30T03:03:28.251Z,9.13
2022-09-30T03:04:28.238Z,9.72
2022-09-30T03:05:28.233Z,8.06
2022-09-30T03:06:28.237Z,9.02
2022-09-30T03:07:28.209Z,9.51
2022-09-30T03:08:28.201Z,9.61
2022-09-30T03:09:28.286Z,9.72
2022-09-30T03:10:28.220Z,9.02
2022-09-30T03:11:28.173Z,9.13
2022-09-30T03:12:28.170Z,9.02
2022-09-30T03:13:28.149Z,8.86
2022-09-30T03:14:28.136Z,9.02
2022-09-30T03:15:28.131Z,9.02
2022-09-30T03:16:28.163Z,9.08
2022-09-30T03:17:28.122Z,8.86
2022-09-30T03:18:28.094Z,10.15
2022-09-30T03:19:28.107Z,9.99
2022-09-30T03:20:28.078Z,9.13
2022-09-30T03:21:28.076Z,9.56
2022-09-30T03:22:28.062Z,8.22
2022-09-30T03:23:28.087Z,8.49
2022-09-30T03:24:28.031Z,8.22
2022-09-30T03:25:28.028Z,7.95
2022-09-30T03:26:28.012Z,9.08
2022-09-30T03:27:28.028Z,9.08
2022-09-30T03:28:27.993Z,9.02
2022-09-30T03:29:27.982Z,10.15
2022-09-30T03:30:27.969Z,9.72
2022-09-30T03:31:28.055Z,9.61
2022-09-30T03:32:27.961Z,9.02
2022-09-30T03:33:34.437Z,9.72
2022-09-30T03:34:27.934Z,9.61
2022-09-30T03:35:27.921Z,8.22
2022-09-30T03:36:27.907Z,9.56
2022-09-30T03:37:27.899Z,9.13
2022-09-30T03:38:27.896Z,9.13
2022-09-30T03:39:27.888Z,9.08
2022-09-30T03:40:27.886Z,9.02
2022-09-30T03:41:27.861Z,9.78
2022-09-30T03:42:27.845Z,8.43
2022-09-30T03:43:27.842Z,9.08
2022-09-30T03:44:27.827Z,9.13
2022-09-30T03:45:27.815Z,8.54
2022-09-30T03:46:27.868Z,9.13
2022-09-30T03:47:27.812Z,9.08
2022-09-30T03:48:27.784Z,7.47
2022-09-30T03:49:27.781Z,9.02
2022-09-30T03:50:27.759Z,9.78
2022-09-30T03:51:27.753Z,9.13
2022-09-30T03:52:27.738Z,9.13
2022-09-30T03:53:27.732Z,10.15
2022-09-30T03:54:27.734Z,9.08
2022-09-30T03:55:27.711Z,9.29
2022-09-30T03:56:27.703Z,9.99
2022-09-30T03:57:27.691Z,10.15
2022-09-30T03:58:27.689Z,9.02
2022-09-30T03:59:27.671Z,8.38
2022-09-30T04:00:27.751Z,9.08
2022-09-30T04:01:27.651Z,9.08
2022-09-30T04:02:27.724Z,9.18
2022-09-30T04:03:27.630Z,9.08
2022-09-30T04:04:27.617Z,9.78
2022-09-30T04:05:27.617Z,9.08
2022-09-30T04:06:27.597Z,9.29
2022-09-30T04:07:27.588Z,9.13
2022-09-30T04:08:29.860Z,9.13
2022-09-30T04:09:27.650Z,9.13
2022-09-30T04:10:27.555Z,9.02
2022-09-30T04:11:26.551Z,9.13
2022-09-30T04:12:27.537Z,9.08
2022-09-30T04:13:27.543Z,9.13
2022-09-30T04:14:27.525Z,9.18
2022-09-30T04:15:27.515Z,9.18
2022-09-30T04:16:27.528Z,8.11
2022-09-30T04:17:27.484Z,9.13
2022-09-30T04:18:27.484Z,9.08
2022-09-30T04:19:27.465Z,9.13
2022-09-30T04:20:27.450Z,9.13
2022-09-30T04:21:27.443Z,9.13
2022-09-30T04:22:27.440Z,9.13
2022-09-30T04:23:27.431Z,9.45
2022-09-30T04:24:27.408Z,9.51
2022-09-30T04:25:27.402Z,8.06
2022-09-30T04:26:27.389Z,10.04
2022-09-30T04:27:27.406Z,8.92
2022-09-30T04:28:27.388Z,9.18
2022-09-30T04:29:27.362Z,9.13
2022-09-30T04:30:32.715Z,9.08
2022-09-30T04:31:27.384Z,8.43
2022-09-30T04:32:27.328Z,9.18
2022-09-30T04:33:27.333Z,8.22
2022-09-30T04:34:27.304Z,9.13
2022-09-30T04:35:27.298Z,9.13
2022-09-30T04:36:27.287Z,9.99
2022-09-30T04:37:27.277Z,9.18
2022-09-30T04:38:27.264Z,9.18
2022-09-30T04:39:27.266Z,9.13
2022-09-30T04:40:27.243Z,8.75
2022-09-30T04:41:27.237Z,9.08
2022-09-30T04:42:27.224Z,8.33
2022-09-30T04:43:27.225Z,9.08
2022-09-30T04:44:27.203Z,8.75
2022-09-30T04:45:27.251Z,8.27
2022-09-30T04:46:27.182Z,9.18
2022-09-30T04:47:27.175Z,9.13
2022-09-30T04:48:27.168Z,9.83
2022-09-30T04:49:27.166Z,9.08
2022-09-30T04:50:27.087Z,8.38
2022-09-30T04:51:27.089Z,9.67
2022-09-30T04:52:27.064Z,9.13
2022-09-30T04:53:27.115Z,9.08
2022-09-30T04:54:27.097Z,9.13
2022-09-30T04:55:27.056Z,8.54
2022-09-30T04:56:27.022Z,9.24
2022-09-30T04:57:27.041Z,10.47
2022-09-30T04:58:27.056Z,8.75
2022-09-30T04:59:27.048Z,9.72
2022-09-30T05:00:27.077Z,8.92
2022-09-30T05:01:26.989Z,9.94
2022-09-30T05:02:26.985Z,8.75
2022-09-30T05:03:26.952Z,10.26
2022-09-30T05:04:26.940Z,9.78
2022-09-30T05:05:26.933Z,9.18
2022-09-30T05:06:26.919Z,8.06
2022-09-30T05:07:26.923Z,9.13
2022-09-30T05:08:26.897Z,9.18
2022-09-30T05:09:26.938Z,9.13
2022-09-30T05:10:26.898Z,9.08
2022-09-30T05:11:26.872Z,9.13
2022-09-30T05:12:26.869Z,9.67
2022-09-30T05:13:26.849Z,9.08
2022-09-30T05:14:26.834Z,9.13
2022-09-30T05:15:26.828Z,9.18
2022-09-30T05:16:26.895Z,9.08
2022-09-30T05:17:26.808Z,9.08
2022-09-30T05:18:26.797Z,10.15
2022-09-30T05:19:26.791Z,8.00
2022-09-30T05:20:26.773Z,9.02
2022-09-30T05:21:26.774Z,9.56
2022-09-30T05:22:26.751Z,10.31
2022-09-30T05:23:26.744Z,9.02
2022-09-30T05:24:26.742Z,10.04
2022-09-30T05:25:26.745Z,9.02
2022-09-30T05:26:26.726Z,8.49
2022-09-30T05:27:26.719Z,9.24
2022-09-30T05:28:26.710Z,9.08
2022-09-30T05:29:26.707Z,8.75
2022-09-30T05:30:26.682Z,9.13
2022-09-30T05:31:26.717Z,8.97
2022-09-30T05:32:26.652Z,9.56
2022-09-30T05:33:26.652Z,9.08
2022-09-30T05:34:26.635Z,10.31
2022-09-30T05:35:26.621Z,10.10
2022-09-30T05:36:26.621Z,9.18
2022-09-30T05:37:26.600Z,9.13
2022-09-30T05:38:26.598Z,9.24
2022-09-30T05:39:26.589Z,9.24
2022-09-30T05:40:26.564Z,8.65
2022-09-30T05:41:26.557Z,9.13
2022-09-30T05:42:26.544Z,9.45
2022-09-30T05:43:26.542Z,9.13
2022-09-30T05:44:26.539Z,9.13
2022-09-30T05:45:26.530Z,9.13
2022-09-30T05:46:26.561Z,9.13
2022-09-30T05:47:26.497Z,8.38
2022-09-30T05:48:26.487Z,8.97
2022-09-30T05:49:26.473Z,8.16
2022-09-30T05:50:26.462Z,9.08
2022-09-30T05:51:26.466Z,9.67
2022-09-30T05:52:26.441Z,9.67
2022-09-30T05:53:26.432Z,9.18
2022-09-30T05:54:26.430Z,9.40
2022-09-30T05:55:26.412Z,8.81
2022-09-30T05:56:26.399Z,9.02
2022-09-30T05:57:26.392Z,9.61
2022-09-30T05:58:26.396Z,9.29
2022-09-30T05:59:26.372Z,9.29
2022-09-30T06:00:26.359Z,9.35
2022-09-30T06:01:26.360Z,10.26
2022-09-30T06:02:26.521Z,8.27
2022-09-30T06:03:26.332Z,9.88
2022-09-30T06:04:26.316Z,9.24
2022-09-30T06:05:26.307Z,9.18
2022-09-30T06:06:26.305Z,9.24
2022-09-30T06:07:26.286Z,10.04
2022-09-30T06:08:26.275Z,9.29
2022-09-30T06:09:26.336Z,9.35
2022-09-30T06:10:26.263Z,9.24
2022-09-30T06:11:26.258Z,9.29
2022-09-30T06:12:26.236Z,8.59
2022-09-30T06:13:26.232Z,8.97
2022-09-30T06:14:26.215Z,9.18
2022-09-30T06:15:26.208Z,7.84
2022-09-30T06:16:26.261Z,9.61
2022-09-30T06:17:26.190Z,9.18
2022-09-30T06:18:26.174Z,9.24
2022-09-30T06:19:26.164Z,9.18
2022-09-30T06:20:26.149Z,9.13
2022-09-30T06:21:26.155Z,9.29
2022-09-30T06:22:26.133Z,10.37
2022-09-30T06:23:26.126Z,9.08
2022-09-30T06:24:26.107Z,9.24
2022-09-30T06:25:26.122Z,10.63
2022-09-30T06:26:26.085Z,9.24
2022-09-30T06:27:26.094Z,9.94
2022-09-30T06:28:26.065Z,9.13
2022-09-30T06:29:26.059Z,9.24
2022-09-30T06:30:26.043Z,9.13
2022-09-30T06:31:26.133Z,10.15
2022-09-30T06:32:26.027Z,9.29
2022-09-30T06:33:26.030Z,9.40
2022-09-30T06:34:26.002Z,9.40
2022-09-30T06:35:25.996Z,9.51
2022-09-30T06:36:26.000Z,9.35
2022-09-30T06:37:25.979Z,9.29
2022-09-30T06:38:25.980Z,9.40
2022-09-30T06:39:25.954Z,8.65
2022-09-30T06:40:26.012Z,9.24
2022-09-30T06:41:25.934Z,9.35
2022-09-30T06:42:25.920Z,9.45
2022-09-30T06:43:25.919Z,9.99
2022-09-30T06:44:25.910Z,9.40
2022-09-30T06:45:32.272Z,8.22
2022-09-30T06:46:30.708Z,9.29
2022-09-30T06:47:26.358Z,9.45
2022-09-30T06:48:36.432Z,8.49
2022-09-30T06:49:26.800Z,8.43
2022-09-30T06:50:26.043Z,10.37
2022-09-30T06:51:25.828Z,9.45
2022-09-30T06:52:25.815Z,9.51
2022-09-30T06:53:25.820Z,9.40
2022-09-30T06:54:25.794Z,8.75
2022-09-30T06:55:25.796Z,9.29
2022-09-30T06:56:25.773Z,9.88
2022-09-30T06:57:25.768Z,8.54
2022-09-30T06:58:25.753Z,9.45
2022-09-30T06:59:25.757Z,10.10
2022-09-30T07:00:25.782Z,9.45
2022-09-30T07:01:25.809Z,8.49
2022-09-30T07:02:25.749Z,9.51
2022-09-30T07:03:25.704Z,9.45
2022-09-30T07:04:25.692Z,10.15
2022-09-30T07:05:25.683Z,9.08
2022-09-30T07:06:25.669Z,9.45
2022-09-30T07:07:25.673Z,8.81
2022-09-30T07:08:25.654Z,9.51
2022-09-30T07:09:25.872Z,8.75
2022-09-30T07:10:25.739Z,9.61
2022-09-30T07:11:25.616Z,8.49
2022-09-30T07:12:25.625Z,9.40
2022-09-30T07:13:25.598Z,9.51
2022-09-30T07:14:25.594Z,10.69
2022-09-30T07:15:25.575Z,9.51
2022-09-30T07:16:25.656Z,9.88
2022-09-30T07:17:25.569Z,9.51
2022-09-30T07:18:25.554Z,9.51
2022-09-30T07:19:25.536Z,9.67
2022-09-30T07:20:25.586Z,9.99
2022-09-30T07:21:25.512Z,9.51
2022-09-30T07:22:25.510Z,8.59
2022-09-30T07:23:26.880Z,9.45
2022-09-30T07:24:25.483Z,9.61
2022-09-30T07:25:25.474Z,9.61
2022-09-30T07:26:25.463Z,9.61
2022-09-30T07:27:25.449Z,8.92
2022-09-30T07:28:25.443Z,9.61
2022-09-30T07:29:25.442Z,9.72
2022-09-30T07:30:27.425Z,8.59
2022-09-30T07:31:32.894Z,9.61
2022-09-30T07:32:25.443Z,9.61
2022-09-30T07:33:25.389Z,8.49
2022-09-30T07:34:25.385Z,9.67
2022-09-30T07:35:25.390Z,10.69
2022-09-30T07:36:31.147Z,9.78
2022-09-30T07:37:25.353Z,9.78
2022-09-30T07:38:25.337Z,9.83
2022-09-30T07:39:25.326Z,9.29
2022-09-30T07:40:25.319Z,9.61
2022-09-30T07:41:25.317Z,10.53
2022-09-30T07:42:25.307Z,9.72
2022-09-30T07:43:25.280Z,9.67
2022-09-30T07:44:25.303Z,9.35
2022-09-30T07:45:25.357Z,9.78
2022-09-30T07:46:25.263Z,9.72
2022-09-30T07:47:25.238Z,9.72
2022-09-30T07:48:25.248Z,9.88
2022-09-30T07:49:25.534Z,9.83
2022-09-30T07:50:25.215Z,9.72
2022-09-30T07:51:25.197Z,10.04
2022-09-30T07:52:25.190Z,10.04
2022-09-30T07:53:25.197Z,9.83
2022-09-30T07:54:25.166Z,9.35
2022-09-30T07:55:25.163Z,9.78
2022-09-30T07:56:25.152Z,9.94
2022-09-30T07:57:25.149Z,9.72
2022-09-30T07:58:25.128Z,9.13
2022-09-30T07:59:25.114Z,9.83
2022-09-30T08:01:24.109Z,10.47
2022-09-30T08:02:25.215Z,10.04
2022-09-30T08:03:25.071Z,9.78
2022-09-30T08:04:25.076Z,10.10
2022-09-30T08:05:25.049Z,10.58
2022-09-30T08:06:25.061Z,10.04
2022-09-30T08:07:25.030Z,10.04
2022-09-30T08:08:25.024Z,8.43
2022-09-30T08:09:25.199Z,10.15
2022-09-30T08:10:25.022Z,10.10
2022-09-30T08:11:25.001Z,9.99
2022-09-30T08:12:25.013Z,9.13
2022-09-30T08:13:24.986Z,9.94
2022-09-30T08:14:25.171Z,9.99
2022-09-30T08:15:24.945Z,10.04
2022-09-30T08:16:24.971Z,9.78
2022-09-30T08:17:24.925Z,10.15
2022-09-30T08:18:24.917Z,10.15
2022-09-30T08:19:24.903Z,9.08
2022-09-30T08:20:24.899Z,11.28
2022-09-30T08:21:24.893Z,10.10
2022-09-30T08:22:24.886Z,8.70
2022-09-30T08:23:24.861Z,9.40
2022-09-30T08:24:25.018Z,10.26
2022-09-30T08:25:24.854Z,10.04
2022-09-30T08:26:24.842Z,11.01
2022-09-30T08:27:24.915Z,10.15
2022-09-30T08:28:24.845Z,10.04
2022-09-30T08:30:23.787Z,9.99
2022-09-30T08:31:24.844Z,10.47
2022-09-30T08:32:24.768Z,10.15
2022-09-30T08:33:24.767Z,10.26
2022-09-30T08:34:24.980Z,9.02
2022-09-30T08:35:24.738Z,9.67
2022-09-30T08:36:24.731Z,10.04
2022-09-30T08:37:24.716Z,10.10
2022-09-30T08:38:24.719Z,10.04
2022-09-30T08:39:24.704Z,10.37
2022-09-30T08:40:24.684Z,10.21
2022-09-30T08:41:24.671Z,10.21
2022-09-30T08:42:36.855Z,10.15
2022-09-30T08:43:24.669Z,8.70
2022-09-30T08:44:24.871Z,10.26
2022-09-30T08:45:24.633Z,9.56
2022-09-30T08:46:24.708Z,10.15
2022-09-30T08:47:24.617Z,10.26
2022-09-30T08:48:24.601Z,10.26
2022-09-30T08:49:24.719Z,10.15
2022-09-30T08:50:24.587Z,9.56
2022-09-30T08:51:24.568Z,9.67
2022-09-30T08:52:30.639Z,9.35
2022-09-30T08:53:24.550Z,10.80
2022-09-30T08:54:24.543Z,11.01
2022-09-30T08:55:24.534Z,10.47
2022-09-30T08:56:24.524Z,10.42
2022-09-30T08:57:24.502Z,10.96
2022-09-30T08:58:24.496Z,11.23
2022-09-30T08:59:24.657Z,10.42
2022-09-30T09:00:24.485Z,10.53
2022-09-30T09:01:24.548Z,10.31
2022-09-30T09:02:24.487Z,9.99
2022-09-30T09:03:24.438Z,9.99
2022-09-30T09:04:24.628Z,10.42
2022-09-30T09:05:24.426Z,10.47
2022-09-30T09:06:24.408Z,10.63
2022-09-30T09:07:24.395Z,10.26
2022-09-30T09:08:24.390Z,9.78
2022-09-30T09:09:24.511Z,10.58
2022-09-30T09:10:24.385Z,10.74
2022-09-30T09:11:24.355Z,10.85
2022-09-30T09:12:24.349Z,10.80
2022-09-30T09:13:24.331Z,10.96
2022-09-30T09:14:24.331Z,10.42
2022-09-30T09:15:24.310Z,11.28
2022-09-30T09:16:24.359Z,11.33
2022-09-30T09:17:24.289Z,11.92
2022-09-30T09:18:24.999Z,10.53
2022-09-30T09:19:24.410Z,11.33
2022-09-30T09:20:24.264Z,12.57
2022-09-30T09:21:24.260Z,12.14
2022-09-30T09:22:24.993Z,11.87
2022-09-30T09:23:24.235Z,11.39
2022-09-30T09:24:24.219Z,10.37
2022-09-30T09:25:24.205Z,12.25
2022-09-30T09:26:24.198Z,11.44
2022-09-30T09:27:24.273Z,11.33
2022-09-30T09:28:24.234Z,12.08
2022-09-30T09:29:24.378Z,11.28
2022-09-30T09:30:24.180Z,12.30
2022-09-30T09:31:24.156Z,11.28
2022-09-30T09:32:24.131Z,11.44
2022-09-30T09:33:24.144Z,11.44
2022-09-30T09:34:24.112Z,11.66
2022-09-30T09:35:24.099Z,10.31
2022-09-30T09:36:24.089Z,11.98
2022-09-30T09:37:24.078Z,11.17
2022-09-30T09:38:24.077Z,11.06
2022-09-30T09:39:24.240Z,10.80
2022-09-30T09:40:24.048Z,9.72
2022-09-30T09:41:24.032Z,10.96
2022-09-30T09:42:24.034Z,11.01
2022-09-30T09:43:26.329Z,10.96
2022-09-30T09:44:24.146Z,11.60
2022-09-30T09:45:23.992Z,10.15
2022-09-30T09:46:24.040Z,11.01
2022-09-30T09:47:23.977Z,11.12
2022-09-30T09:48:23.968Z,10.26
2022-09-30T09:49:23.951Z,11.12
2022-09-30T09:50:23.957Z,10.47
2022-09-30T09:51:23.926Z,10.63
2022-09-30T09:52:23.925Z,11.39
2022-09-30T09:53:23.918Z,12.19
2022-09-30T09:54:23.976Z,11.23
2022-09-30T09:55:23.894Z,11.66
2022-09-30T09:56:26.339Z,10.63
2022-09-30T09:57:23.868Z,11.23
2022-09-30T09:58:23.875Z,11.39
2022-09-30T09:59:24.266Z,11.33
2022-09-30T10:00:23.839Z,12.03
2022-09-30T10:01:23.848Z,11.44
2022-09-30T10:02:23.977Z,11.33
2022-09-30T10:03:23.804Z,11.39
2022-09-30T10:04:23.913Z,11.49
2022-09-30T10:05:23.791Z,11.44
2022-09-30T10:06:23.771Z,11.28
2022-09-30T10:07:23.761Z,11.39
2022-09-30T10:08:23.755Z,11.39
2022-09-30T10:09:23.809Z,10.37
2022-09-30T10:10:24.483Z,10.58
2022-09-30T10:11:23.714Z,11.44
2022-09-30T10:12:23.711Z,11.49
2022-09-30T10:13:23.690Z,11.55
2022-09-30T10:14:23.788Z,10.47
2022-09-30T10:15:23.667Z,11.06
2022-09-30T10:16:23.671Z,11.55
2022-09-30T10:17:23.650Z,11.60
2022-09-30T10:18:23.640Z,11.60
2022-09-30T10:19:23.628Z,11.01
2022-09-30T10:20:23.633Z,11.28
2022-09-30T10:21:23.623Z,11.23
2022-09-30T10:22:23.625Z,11.23
2022-09-30T10:23:23.591Z,11.28
2022-09-30T10:24:23.649Z,11.28
2022-09-30T10:25:23.582Z,11.33
2022-09-30T10:26:23.612Z,11.55
2022-09-30T10:27:23.539Z,11.76
2022-09-30T10:28:23.637Z,12.41
2022-09-30T10:29:23.691Z,11.92
2022-09-30T10:30:23.513Z,11.71
2022-09-30T10:31:23.568Z,12.19
2022-09-30T10:32:23.492Z,11.39
2022-09-30T10:33:23.479Z,12.25
2022-09-30T10:34:23.480Z,12.19
2022-09-30T10:35:23.457Z,13.16
2022-09-30T10:36:23.470Z,11.66
2022-09-30T10:37:23.448Z,11.92
2022-09-30T10:38:23.432Z,13.11
2022-09-30T10:39:23.432Z,12.51
2022-09-30T10:40:23.407Z,12.51
2022-09-30T10:41:23.782Z,12.46
2022-09-30T10:42:26.230Z,11.66
2022-09-30T10:43:23.369Z,12.41
2022-09-30T10:44:23.375Z,12.30
2022-09-30T10:45:23.349Z,12.35
2022-09-30T10:46:27.687Z,12.35
2022-09-30T10:47:23.345Z,12.14
2022-09-30T10:48:23.324Z,11.44
2022-09-30T10:49:23.320Z,11.87
2022-09-30T10:50:23.312Z,11.98
2022-09-30T10:51:23.755Z,11.76
2022-09-30T10:52:23.278Z,11.76
2022-09-30T10:53:23.263Z,11.87
2022-09-30T10:54:23.288Z,12.46
2022-09-30T10:55:23.278Z,11.39
2022-09-30T10:56:23.235Z,11.60
2022-09-30T10:57:23.219Z,12.19
2022-09-30T10:58:23.218Z,11.76
2022-09-30T10:59:23.199Z,10.47
2022-09-30T11:00:23.200Z,11.49
2022-09-30T11:01:23.206Z,12.25
2022-09-30T11:02:23.182Z,12.57
2022-09-30T11:03:23.190Z,11.12
2022-09-30T11:04:23.157Z,11.06
2022-09-30T11:05:23.145Z,10.90
2022-09-30T11:06:23.125Z,11.98
2022-09-30T11:07:23.113Z,12.14
2022-09-30T11:08:23.111Z,12.08
2022-09-30T11:09:23.093Z,12.51
2022-09-30T11:10:23.084Z,12.94
2022-09-30T11:11:23.082Z,9.56
2022-09-30T11:12:23.064Z,11.17
2022-09-30T11:13:23.053Z,13.16
2022-09-30T11:14:23.042Z,12.25
2022-09-30T11:15:23.048Z,12.30
2022-09-30T11:16:23.058Z,12.30
2022-09-30T11:17:23.031Z,12.25
2022-09-30T11:18:22.999Z,12.19
2022-09-30T11:19:22.984Z,12.68
2022-09-30T11:20:22.976Z,12.51
2022-09-30T11:21:22.973Z,12.62
2022-09-30T11:22:22.954Z,12.19
2022-09-30T11:23:22.946Z,12.19
2022-09-30T11:24:22.932Z,11.28
2022-09-30T11:25:22.924Z,12.14
2022-09-30T11:26:23.073Z,12.25
2022-09-30T11:27:22.903Z,11.60
2022-09-30T11:28:22.993Z,13.21
2022-09-30T11:29:22.881Z,13.48
2022-09-30T11:30:22.872Z,12.57
2022-09-30T11:31:22.917Z,12.84
2022-09-30T11:32:22.965Z,11.92
2022-09-30T11:33:22.845Z,11.76
2022-09-30T11:34:22.854Z,11.98
2022-09-30T11:35:22.823Z,11.76
2022-09-30T11:36:22.808Z,12.51
2022-09-30T11:37:22.808Z,10.31
2022-09-30T11:38:22.787Z,11.49
2022-09-30T11:39:22.777Z,11.44
2022-09-30T11:40:22.815Z,11.49
2022-09-30T11:41:22.758Z,11.44
2022-09-30T11:42:22.759Z,12.35
2022-09-30T11:43:22.736Z,12.14
2022-09-30T11:44:22.720Z,12.51
2022-09-30T11:45:22.891Z,12.46
2022-09-30T11:46:22.720Z,10.85
2022-09-30T11:47:22.704Z,11.71
2022-09-30T11:48:22.705Z,12.08
2022-09-30T11:49:22.693Z,11.87
2022-09-30T11:50:22.669Z,11.92
2022-09-30T11:51:22.693Z,11.92
2022-09-30T11:52:22.655Z,11.01
2022-09-30T11:53:22.648Z,12.73
2022-09-30T11:54:22.645Z,12.46
2022-09-30T11:55:22.638Z,12.51
2022-09-30T11:56:22.599Z,11.87
2022-09-30T11:57:22.605Z,11.92
2022-09-30T11:58:40.442Z,11.98
2022-09-30T11:59:22.577Z,11.92
2022-09-30T12:00:22.564Z,12.08
2022-09-30T12:01:22.548Z,12.03
2022-09-30T12:02:22.564Z,11.87
2022-09-30T12:03:22.582Z,12.57
2022-09-30T12:04:22.521Z,12.73
2022-09-30T12:05:22.509Z,11.87
2022-09-30T12:06:22.497Z,10.58
2022-09-30T12:07:22.499Z,12.84
2022-09-30T12:08:22.489Z,11.60
2022-09-30T12:09:22.476Z,11.49
2022-09-30T12:10:22.487Z,11.55
2022-09-30T12:11:22.461Z,10.90
2022-09-30T12:12:22.435Z,10.96
2022-09-30T12:13:22.425Z,12.03
2022-09-30T12:14:22.432Z,11.49
2022-09-30T12:15:22.411Z,11.44
2022-09-30T12:16:22.422Z,12.08
2022-09-30T12:17:22.383Z,11.28
2022-09-30T12:18:22.370Z,10.90
2022-09-30T12:19:25.493Z,12.03
2022-09-30T12:20:22.373Z,11.39
2022-09-30T12:21:22.342Z,12.25
2022-09-30T12:22:22.330Z,11.39
2022-09-30T12:23:22.321Z,11.55
2022-09-30T12:24:22.314Z,11.49
2022-09-30T12:25:22.301Z,10.69
2022-09-30T12:26:22.298Z,11.60
2022-09-30T12:27:22.279Z,11.44
2022-09-30T12:28:22.338Z,12.46
2022-09-30T12:29:22.260Z,11.87
2022-09-30T12:30:22.248Z,11.87
2022-09-30T12:31:22.300Z,11.87
2022-09-30T12:32:22.223Z,11.76
2022-09-30T12:33:22.232Z,11.66
2022-09-30T12:34:22.203Z,11.06
2022-09-30T12:35:22.198Z,11.66
2022-09-30T12:36:22.183Z,11.49
2022-09-30T12:37:22.197Z,10.31
2022-09-30T12:38:22.161Z,11.55
2022-09-30T12:39:22.156Z,12.68
2022-09-30T12:40:22.142Z,11.49
2022-09-30T12:41:22.139Z,11.39
2022-09-30T12:42:22.119Z,10.74
2022-09-30T12:43:22.120Z,11.28
2022-09-30T12:44:22.101Z,10.80
2022-09-30T12:45:22.091Z,11.55
2022-09-30T12:46:22.159Z,10.37
2022-09-30T12:47:22.083Z,11.76
2022-09-30T12:48:22.080Z,10.96
2022-09-30T12:49:22.050Z,10.96
2022-09-30T12:50:22.035Z,11.49
2022-09-30T12:51:22.029Z,11.49
2022-09-30T12:52:22.023Z,11.39
2022-09-30T12:53:22.008Z,10.37
2022-09-30T12:54:22.005Z,11.60
2022-09-30T12:55:21.987Z,11.55
2022-09-30T12:56:21.971Z,10.85
2022-09-30T12:57:21.963Z,11.60
2022-09-30T12:58:21.953Z,12.14
2022-09-30T12:59:21.951Z,11.87
2022-09-30T13:00:21.927Z,11.71
2022-09-30T13:01:21.980Z,12.25
2022-09-30T13:02:21.955Z,12.19
2022-09-30T13:03:21.902Z,12.25
2022-09-30T13:04:21.893Z,12.78
2022-09-30T13:05:21.892Z,12.78
2022-09-30T13:06:21.866Z,12.30
2022-09-30T13:07:21.863Z,12.35
2022-09-30T13:08:25.334Z,13.11
2022-09-30T13:09:21.854Z,12.78